Time;durP1;ratioP1;P1;durP2;ratioP2;P2;SDS_P1;SDS_P2;PMS_P1;PMS_P2;Temp;Humidity;BMP_temperature;BMP_pressure;BME280_temperature;BME280_humidity;BME280_pressure;Samples;Min_cycle;Max_cycle;Signal;HPM_P1;HPM_P2
2022/04/03 00:01:19;;;;;;;4.47;1.57;;;;;;;;;;5029476;28;20112;-73
2022/04/03 00:03:46;;;;;;;2.37;1.33;;;-0.30;99.90;;;;;;5010957;28;20037;-73
2022/04/03 00:06:11;;;;;;;2.87;1.00;;;-0.40;99.90;;;;;;5030560;28;20075;-74
2022/04/03 00:08:37;;;;;;;1.47;0.60;;;-0.30;99.90;;;;;;5032521;28;20037;-74
2022/04/03 00:11:03;;;;;;;2.73;0.80;;;;;;;;;;5014855;28;20452;-74
2022/04/03 00:13:29;;;;;;;1.93;0.70;;;;;;;;;;5031519;28;20033;-74
2022/04/03 00:15:56;;;;;;;2.00;0.83;;;-0.40;99.90;;;;;;5035393;28;20033;-73
2022/04/03 00:18:22;;;;;;;5.13;1.63;;;-0.80;99.90;;;;;;5038060;28;20018;-73
2022/04/03 00:20:48;;;;;;;2.80;0.60;;;-0.40;99.90;;;;;;5030206;28;20033;-74
2022/04/03 00:23:13;;;;;;;4.77;1.10;;;-0.40;99.90;;;;;;5032720;28;20041;-74
2022/04/03 00:25:39;;;;;;;4.03;1.10;;;;;;;;;;5032276;28;20022;-74
2022/04/03 00:28:06;;;;;;;2.90;0.60;;;-0.60;99.90;;;;;;5035096;28;20033;-74
2022/04/03 00:30:32;;;;;;;1.80;0.87;;;;;;;;;;5032789;28;20108;-74
2022/04/03 00:32:58;;;;;;;2.00;0.80;;;-0.60;99.90;;;;;;5032930;28;20036;-74
2022/04/03 00:35:23;;;;;;;2.97;1.00;;;-0.50;99.90;;;;;;5030892;28;20394;-74
2022/04/03 00:37:49;;;;;;;3.37;1.90;;;-0.70;99.90;;;;;;5031811;28;20044;-74
2022/04/03 00:40:15;;;;;;;2.90;0.80;;;-0.80;99.90;;;;;;5014556;28;20108;-74
2022/04/03 00:42:42;;;;;;;5.27;1.60;;;;;;;;;;5025203;28;20051;-74
2022/04/03 00:45:08;;;;;;;1.47;0.90;;;-0.80;99.90;;;;;;5032036;28;20033;-74
2022/04/03 00:47:34;;;;;;;2.07;0.93;;;-0.80;98.60;;;;;;5031569;28;20033;-74
2022/04/03 00:50:00;;;;;;;3.70;1.33;;;-0.70;99.90;;;;;;5013730;28;20025;-75
2022/04/03 00:52:26;;;;;;;4.43;0.93;;;-0.80;99.90;;;;;;5028023;28;20144;-74
2022/04/03 00:54:52;;;;;;;7.23;1.40;;;-0.90;99.90;;;;;;5031713;28;20037;-74
2022/04/03 00:57:20;;;;;;;3.07;1.10;;;-0.90;99.90;;;;;;5031870;28;20026;-74
2022/04/03 00:59:46;;;;;;;4.63;1.53;;;-1.20;99.90;;;;;;5031275;28;20548;-74
2022/04/03 01:02:12;;;;;;;4.47;1.30;;;;;;;;;;5013993;28;20072;-74
2022/04/03 01:04:38;;;;;;;1.57;0.77;;;-0.90;99.90;;;;;;5030739;28;20021;-74
2022/04/03 01:07:04;;;;;;;3.80;1.00;;;;;;;;;;5008331;28;20037;-74
2022/04/03 01:09:30;;;;;;;1.57;1.00;;;-1.00;99.90;;;;;;5031381;28;20117;-74
2022/04/03 01:11:56;;;;;;;6.30;1.10;;;;;;;;;;5031848;28;20112;-74
2022/04/03 01:14:41;;;;;;;4.47;1.23;;;-1.20;99.90;;;;;;5031574;28;20466;-74
2022/04/03 01:17:08;;;;;;;2.73;0.97;;;-1.30;99.90;;;;;;5030970;28;20075;-74
2022/04/03 01:19:34;;;;;;;3.17;1.20;;;;;;;;;;5030925;28;20033;-74
2022/04/03 01:22:00;;;;;;;2.43;1.10;;;-1.10;99.90;;;;;;5030683;28;20029;-74
2022/04/03 01:24:26;;;;;;;2.90;1.07;;;-1.20;99.90;;;;;;5030946;28;20124;-74
2022/04/03 01:26:52;;;;;;;1.70;0.93;;;;;;;;;;5030953;28;20459;-74
2022/04/03 01:29:18;;;;;;;2.37;1.07;;;-1.00;99.90;;;;;;5031236;28;20497;-74
2022/04/03 01:31:46;;;;;;;2.97;1.30;;;-1.10;99.40;;;;;;5030313;28;20039;-74
2022/04/03 01:34:13;;;;;;;3.80;1.57;;;-1.40;99.90;;;;;;5013310;28;20547;-74
2022/04/03 01:36:39;;;;;;;5.50;1.77;;;;;;;;;;5024610;28;20029;-74
2022/04/03 01:39:05;;;;;;;3.07;1.80;;;-1.00;99.90;;;;;;5030942;28;20117;-74
2022/04/03 01:41:31;;;;;;;2.87;1.77;;;-1.00;99.90;;;;;;5030658;28;20029;-74
2022/04/03 01:43:56;;;;;;;3.07;1.37;;;-1.10;99.90;;;;;;5030788;28;20410;-74
2022/04/03 01:46:22;;;;;;;4.23;2.53;;;;;;;;;;5030742;28;20029;-74
2022/04/03 01:48:48;;;;;;;3.63;1.83;;;-1.10;99.90;;;;;;5030006;28;20030;-73
2022/04/03 01:51:14;;;;;;;4.93;1.93;;;;;;;;;;5012661;28;20037;-73
2022/04/03 01:53:39;;;;;;;3.73;1.97;;;-1.20;99.90;;;;;;5030157;28;20036;-73
2022/04/03 01:56:07;;;;;;;3.33;1.30;;;-1.10;99.90;;;;;;5030411;28;20037;-74
2022/04/03 01:58:34;;;;;;;5.17;2.10;;;-1.30;99.90;;;;;;5030186;28;20025;-74
2022/04/03 02:01:00;;;;;;;6.50;2.40;;;-1.10;99.90;;;;;;5030182;28;20056;-74
2022/04/03 02:03:27;;;;;;;7.77;2.77;;;;;;;;;;5012603;28;20507;-74
2022/04/03 02:05:53;;;;;;;6.00;2.37;;;;;;;;;;5029687;28;20034;-74
2022/04/03 02:08:19;;;;;;;4.10;1.73;;;;;;;;;;5030612;28;20026;-73
2022/04/03 02:10:45;;;;;;;3.50;1.80;;;-1.00;99.90;;;;;;5030042;28;20068;-74
2022/04/03 02:13:11;;;;;;;5.87;2.57;;;-0.60;99.90;;;;;;5030371;28;20029;-74
2022/04/03 02:15:36;;;;;;;5.03;2.10;;;-1.00;99.90;;;;;;5028782;28;20036;-74
2022/04/03 02:18:03;;;;;;;3.37;1.63;;;;;;;;;;5030465;28;20112;-73
2022/04/03 02:20:28;;;;;;;4.33;2.20;;;-1.30;99.90;;;;;;5029438;28;20069;-74
2022/04/03 02:22:54;;;;;;;7.43;2.23;;;-1.10;99.90;;;;;;5024008;28;20052;-74
2022/04/03 02:25:20;;;;;;;4.30;2.17;;;;;;;;;;5030303;28;20067;-74
2022/04/03 02:27:46;;;;;;;3.27;1.80;;;-1.20;99.90;;;;;;5023049;28;20030;-73
2022/04/03 02:30:13;;;;;;;7.97;3.83;;;-1.30;99.90;;;;;;5028723;28;20112;-74
2022/04/03 02:32:40;;;;;;;6.70;1.97;;;-1.40;99.90;;;;;;5029432;28;20478;-74
2022/04/03 02:35:08;;;;;;;7.70;1.80;;;-1.50;99.90;;;;;;5029773;28;20089;-74
2022/04/03 02:37:35;;;;;;;5.20;2.47;;;-1.60;99.90;;;;;;5011862;28;20486;-74
2022/04/03 02:40:02;;;;;;;4.30;2.27;;;-1.40;99.90;;;;;;5030220;28;20033;-75
2022/04/03 02:42:28;;;;;;;3.20;2.00;;;-1.40;99.90;;;;;;5032933;28;20044;-74
2022/04/03 02:44:54;;;;;;;4.17;1.80;;;;;;;;;;5014881;28;20034;-74
2022/04/03 02:47:20;;;;;;;5.53;2.03;;;;;;;;;;5030438;28;20069;-74
2022/04/03 02:49:46;;;;;;;4.10;2.00;;;;;;;;;;5029326;28;20036;-74
2022/04/03 02:52:12;;;;;;;3.87;2.07;;;;;;;;;;5012749;28;20030;-73
2022/04/03 02:54:38;;;;;;;2.93;1.80;;;-1.40;99.90;;;;;;5032116;28;20055;-73
2022/04/03 02:57:03;;;;;;;3.13;1.70;;;-1.00;99.90;;;;;;5033580;28;20033;-73
2022/04/03 02:59:29;;;;;;;3.97;2.00;;;-1.30;99.90;;;;;;5030056;28;20037;-74
2022/04/03 03:01:55;;;;;;;3.40;2.03;;;;;;;;;;5011432;28;20068;-74
2022/04/03 03:04:21;;;;;;;4.00;1.83;;;-1.30;99.90;;;;;;5029654;28;20061;-74
2022/04/03 03:06:47;;;;;;;4.23;2.13;;;;;;;;;;5029245;28;20091;-74
2022/04/03 03:09:12;;;;;;;6.90;4.20;;;-1.40;99.90;;;;;;5029735;28;20099;-74
2022/04/03 03:11:38;;;;;;;3.10;1.57;;;-1.00;99.90;;;;;;5029178;28;20021;-74
2022/04/03 03:14:03;;;;;;;6.10;2.20;;;-1.30;99.90;;;;;;5029338;28;20034;-74
2022/04/03 03:16:29;;;;;;;4.40;2.37;;;-1.20;99.90;;;;;;5029202;28;20071;-74
2022/04/03 03:18:54;;;;;;;2.33;2.00;;;-1.10;99.90;;;;;;5026443;28;20497;-74
2022/04/03 03:21:21;;;;;;;5.03;2.10;;;;;;;;;;5011758;28;20014;-74
2022/04/03 03:23:47;;;;;;;3.43;2.03;;;;;;;;;;5028929;28;20041;-74
2022/04/03 03:26:13;;;;;;;3.47;1.83;;;;;;;;;;5028853;28;20021;-74
2022/04/03 03:28:38;;;;;;;2.77;2.27;;;;;;;;;;5028547;28;20113;-74
2022/04/03 03:31:05;;;;;;;3.80;2.10;;;-0.80;99.90;;;;;;5029538;28;20028;-74
2022/04/03 03:33:31;;;;;;;2.73;1.47;;;;;;;;;;5028833;28;20101;-74
2022/04/03 03:35:57;;;;;;;2.73;1.60;;;-0.70;99.90;;;;;;5029302;28;20054;-74
2022/04/03 03:38:23;;;;;;;3.67;1.87;;;;;;;;;;5028689;28;20033;-75
2022/04/03 03:40:50;;;;;;;4.27;1.87;;;;;;;;;;5030113;28;20025;-74
2022/04/03 03:43:16;;;;;;;4.77;2.37;;;;;;;;;;5026373;28;20069;-74
2022/04/03 03:45:41;;;;;;;4.07;2.20;;;-0.70;99.90;;;;;;5032591;28;20501;-73
2022/04/03 03:48:10;;;;;;;4.27;2.13;;;-0.80;99.90;;;;;;5033150;28;20060;-74
2022/04/03 03:50:36;;;;;;;3.03;2.03;;;-1.00;99.90;;;;;;5032486;28;20025;-74
2022/04/03 03:53:02;;;;;;;3.20;1.73;;;-0.90;99.90;;;;;;5032501;28;20052;-74
2022/04/03 03:55:28;;;;;;;2.70;1.83;;;;;;;;;;5032616;28;20565;-74
2022/04/03 03:57:53;;;;;;;3.57;1.77;;;-0.80;99.90;;;;;;5014498;28;20026;-74
2022/04/03 04:00:19;;;;;;;3.77;1.70;;;;;;;;;;5015278;28;20095;-74
2022/04/03 04:02:45;;;;;;;4.20;2.23;;;-0.90;99.90;;;;;;5031886;28;20044;-74
2022/04/03 04:05:11;;;;;;;4.50;1.97;;;;;;;;;;5015089;28;20418;-74
2022/04/03 04:07:38;;;;;;;4.50;2.40;;;-1.00;99.90;;;;;;5031972;28;20060;-74
2022/04/03 04:10:04;;;;;;;4.80;2.23;;;-0.90;99.90;;;;;;5032697;28;20476;-74
2022/04/03 04:12:30;;;;;;;2.87;2.27;;;;;;;;;;5031650;28;20036;-74
2022/04/03 04:14:56;;;;;;;4.43;2.03;;;;;;;;;;4994658;28;20121;-74
2022/04/03 04:17:21;;;;;;;4.00;2.43;;;-1.00;99.90;;;;;;5028571;28;20056;-74
2022/04/03 04:19:47;;;;;;;5.77;2.80;;;-0.90;99.90;;;;;;5031971;28;20029;-74
2022/04/03 04:22:12;;;;;;;4.93;2.80;;;-0.80;99.90;;;;;;5032630;28;20120;-74
2022/04/03 04:24:38;;;;;;;4.37;2.20;;;;;;;;;;5031962;28;20037;-74
2022/04/03 04:27:03;;;;;;;9.20;2.90;;;-0.70;99.90;;;;;;5032154;28;20033;-73
2022/04/03 04:29:29;;;;;;;6.70;2.57;;;;;;;;;;5032150;28;20120;-73
2022/04/03 04:31:55;;;;;;;4.07;2.47;;;;;;;;;;5014417;28;20477;-73
2022/04/03 04:34:21;;;;;;;5.40;3.33;;;-0.70;99.90;;;;;;5032158;28;20518;-73
2022/04/03 04:36:46;;;;;;;7.20;2.40;;;-0.70;99.90;;;;;;5031706;28;20148;-73
2022/04/03 04:39:12;;;;;;;6.30;2.67;;;-0.60;99.90;;;;;;5010234;28;20041;-73
2022/04/03 04:41:38;;;;;;;5.87;3.37;;;;;;;;;;5013547;28;20033;-73
2022/04/03 04:44:04;;;;;;;3.73;2.57;;;;;;;;;;5032162;28;20056;-73
2022/04/03 04:46:30;;;;;;;4.73;2.90;;;;;;;;;;5031651;28;20494;-73
2022/04/03 04:48:55;;;;;;;5.70;2.63;;;-0.60;99.90;;;;;;5031974;28;20100;-73
2022/04/03 04:51:22;;;;;;;4.50;2.73;;;;;;;;;;5031571;28;20025;-73
2022/04/03 04:53:48;;;;;;;4.63;2.47;;;;;;;;;;5030922;28;20030;-74
2022/04/03 04:56:13;;;;;;;4.13;2.37;;;-0.40;99.90;;;;;;5031544;28;20029;-73
2022/04/03 04:58:40;;;;;;;4.07;2.53;;;-0.40;99.90;;;;;;5013582;28;20025;-73
2022/04/03 05:01:05;;;;;;;2.57;1.90;;;-0.30;99.90;;;;;;5031682;28;20065;-73
2022/04/03 05:03:31;;;;;;;3.70;2.27;;;;;;;;;;5031385;28;20481;-73
2022/04/03 05:05:57;;;;;;;4.47;2.60;;;-0.20;99.90;;;;;;5031721;28;20029;-73
2022/04/03 05:08:23;;;;;;;3.50;2.20;;;;;;;;;;5031181;28;20120;-73
2022/04/03 05:10:50;;;;;;;4.50;2.50;;;;;;;;;;5032654;28;20025;-73
2022/04/03 05:13:15;;;;;;;5.13;2.67;;;-0.20;99.90;;;;;;5015741;28;20021;-73
2022/04/03 05:15:41;;;;;;;3.50;2.53;;;;;;;;;;5032720;28;20388;-73
2022/04/03 05:18:07;;;;;;;3.60;2.33;;;;;;;;;;5031084;28;20061;-74
2022/04/03 05:20:33;;;;;;;4.43;2.43;;;0.10;99.90;;;;;;5030678;28;20021;-73
2022/04/03 05:22:59;;;;;;;3.47;2.03;;;0.10;99.90;;;;;;5032776;28;20044;-73
2022/04/03 05:25:24;;;;;;;3.30;2.20;;;0.10;99.90;;;;;;5028713;28;20112;-74
2022/04/03 05:27:50;;;;;;;3.00;2.20;;;0.10;99.90;;;;;;5032929;28;20048;-74
2022/04/03 05:30:16;;;;;;;3.83;2.20;;;;;;;;;;5031372;28;20037;-73
2022/04/03 05:32:42;;;;;;;7.03;2.70;;;0.40;99.90;;;;;;5012567;28;20487;-74
2022/04/03 05:35:10;;;;;;;3.17;2.37;;;0.10;99.90;;;;;;5031094;28;20045;-73
2022/04/03 05:37:39;;;;;;;4.87;2.70;;;;;;;;;;5030677;28;20474;-73
2022/04/03 05:40:05;;;;;;;4.90;2.23;;;0.30;99.90;;;;;;5030652;28;20025;-74
2022/04/03 05:42:33;;;;;;;4.07;2.97;;;0.30;99.90;;;;;;5012917;28;20503;-74
2022/04/03 05:44:59;;;;;;;4.13;2.70;;;;;;;;;;5022959;28;20037;-73
2022/04/03 05:47:24;;;;;;;4.63;3.37;;;0.50;99.90;;;;;;5029424;28;20030;-74
2022/04/03 05:49:50;;;;;;;4.03;2.40;;;;;;;;;;5028052;28;20035;-73
2022/04/03 05:52:16;;;;;;;5.17;2.80;;;;;;;;;;5011746;28;20033;-74
2022/04/03 05:54:42;;;;;;;5.27;3.10;;;0.70;99.90;;;;;;5029758;28;20029;-74
2022/04/03 05:57:09;;;;;;;3.67;2.57;;;0.80;99.90;;;;;;5031081;28;20060;-74
2022/04/03 05:59:34;;;;;;;8.23;3.33;;;1.10;99.90;;;;;;5023789;28;20498;-74
2022/04/03 06:02:00;;;;;;;4.30;2.50;;;0.60;99.90;;;;;;4993634;28;20022;-74
2022/04/03 06:04:25;;;;;;;7.57;3.07;;;0.30;99.90;;;;;;5010434;28;20037;-74
2022/04/03 06:06:51;;;;;;;3.90;2.60;;;0.50;99.90;;;;;;4993296;28;20395;-74
2022/04/03 06:09:16;;;;;;;4.17;2.63;;;0.80;99.90;;;;;;4993122;28;20022;-74
2022/04/03 06:11:42;;;;;;;5.33;3.10;;;0.80;99.90;;;;;;5010557;28;20068;-74
2022/04/03 06:14:08;;;;;;;6.80;3.07;;;;;;;;;;5011014;28;20495;-74
2022/04/03 06:16:34;;;;;;;5.83;3.53;;;;;;;;;;5010556;28;20068;-74
2022/04/03 06:19:00;;;;;;;3.93;2.50;;;;;;;;;;5021463;28;20438;-74
2022/04/03 06:21:26;;;;;;;7.43;3.17;;;;;;;;;;5010612;28;20483;-74
2022/04/03 06:23:52;;;;;;;5.23;3.23;;;;;;;;;;5010363;28;20117;-74
2022/04/03 06:26:17;;;;;;;4.43;3.07;;;0.60;99.90;;;;;;5010848;28;20064;-74
2022/04/03 06:28:44;;;;;;;5.03;3.37;;;;;;;;;;5010396;28;20049;-73
2022/04/03 06:31:10;;;;;;;8.43;3.20;;;;;;;;;;5010722;28;20072;-74
2022/04/03 06:33:36;;;;;;;6.77;3.67;;;;;;;;;;5010135;28;20022;-74
2022/04/03 06:36:03;;;;;;;5.20;3.33;;;;;;;;;;5010051;28;20542;-74
2022/04/03 06:38:29;;;;;;;7.97;3.93;;;;;;;;;;5010499;28;20171;-74
2022/04/03 06:40:57;;;;;;;5.40;3.83;;;0.20;99.90;;;;;;5010351;28;20387;-74
2022/04/03 06:43:25;;;;;;;8.17;3.80;;;0.20;99.90;;;;;;4992752;28;20042;-74
2022/04/03 06:45:52;;;;;;;6.87;3.77;;;0.40;99.90;;;;;;5012743;28;20550;-74
2022/04/03 06:48:18;;;;;;;6.50;3.33;;;0.80;99.90;;;;;;5012609;28;20733;-73
2022/04/03 06:50:44;;;;;;;6.87;4.47;;;0.40;99.90;;;;;;5027296;28;20084;-73
2022/04/03 06:53:10;;;;;;;6.43;4.03;;;0.40;99.90;;;;;;5020075;28;20026;-74
2022/04/03 06:55:36;;;;;;;6.50;4.17;;;;;;;;;;5009738;28;20034;-73
2022/04/03 06:58:02;;;;;;;7.67;4.47;;;0.50;99.90;;;;;;5010570;28;20030;-74
2022/04/03 07:00:28;;;;;;;7.93;5.00;;;0.50;99.90;;;;;;5009931;28;20064;-73
2022/04/03 07:02:54;;;;;;;11.33;5.07;;;;;;;;;;5022955;28;20071;-73
2022/04/03 07:05:21;;;;;;;7.80;5.27;;;;;;;;;;5029624;28;20386;-73
2022/04/03 07:07:46;;;;;;;6.03;4.53;;;0.80;99.90;;;;;;5029588;28;20128;-74
2022/04/03 07:10:13;;;;;;;6.87;4.70;;;;;;;;;;5012270;28;20056;-74
2022/04/03 07:12:39;;;;;;;10.23;5.83;;;1.10;99.90;;;;;;5029586;28;20064;-74
2022/04/03 07:15:07;;;;;;;8.77;5.40;;;1.10;99.90;;;;;;5030179;28;20065;-74
2022/04/03 07:17:32;;;;;;;8.17;4.90;;;;;;;;;;5033567;28;20386;-73
2022/04/03 07:19:58;;;;;;;12.57;4.97;;;1.30;99.90;;;;;;5033358;28;20030;-74
2022/04/03 07:22:23;;;;;;;11.17;4.53;;;1.50;99.90;;;;;;5033419;28;20041;-74
2022/04/03 07:24:49;;;;;;;8.10;5.90;;;;;;;;;;5031869;28;20032;-75
2022/04/03 07:27:15;;;;;;;5.60;4.03;;;1.40;99.90;;;;;;5033891;28;20532;-76
2022/04/03 07:29:41;;;;;;;7.00;5.27;;;;;;;;;;5033311;28;20108;-76
2022/04/03 07:32:07;;;;;;;7.17;5.30;;;1.70;99.90;;;;;;5033833;28;20382;-76
2022/04/03 07:34:33;;;;;;;6.47;4.63;;;;;;;;;;5014419;28;20409;-76
2022/04/03 07:36:58;;;;;;;6.33;4.13;;;1.70;99.90;;;;;;5017358;28;20042;-76
2022/04/03 07:39:26;;;;;;;6.07;4.00;;;2.20;99.90;;;;;;5018967;28;20104;-76
2022/04/03 07:41:52;;;;;;;5.27;4.53;;;;;;;;;;5020337;28;20076;-75
2022/04/03 07:44:17;;;;;;;7.37;4.27;;;2.60;99.90;;;;;;5014497;28;20048;-76
2022/04/03 07:46:43;;;;;;;8.90;4.73;;;;;;;;;;5013389;28;20053;-76
2022/04/03 07:49:10;;;;;;;8.40;5.13;;;;;;;;;;5013541;28;20041;-75
2022/04/03 07:51:36;;;;;;;6.87;4.70;;;2.80;99.90;;;;;;5023923;28;20037;-75
2022/04/03 07:54:02;;;;;;;8.60;4.57;;;2.90;99.90;;;;;;5003902;28;20091;-76
2022/04/03 07:56:27;;;;;;;5.83;4.13;;;3.10;99.90;;;;;;4996180;28;20037;-75
2022/04/03 07:58:53;;;;;;;9.00;5.13;;;3.40;99.90;;;;;;5013509;28;20037;-75
2022/04/03 08:01:19;;;;;;;8.83;5.30;;;;;;;;;;4995897;28;20033;-76
2022/04/03 08:03:45;;;;;;;5.17;4.47;;;3.60;99.90;;;;;;5012329;28;20030;-75
2022/04/03 08:06:11;;;;;;;7.90;4.73;;;;;;;;;;5027185;28;20029;-75
2022/04/03 08:08:37;;;;;;;5.33;4.07;;;4.10;99.90;;;;;;5032425;28;20029;-76
2022/04/03 08:11:03;;;;;;;7.90;5.43;;;;;;;;;;5033340;28;20032;-76
2022/04/03 08:13:28;;;;;;;6.47;3.90;;;4.40;99.90;;;;;;5032444;28;20025;-76
2022/04/03 08:15:54;;;;;;;7.03;4.40;;;;;;;;;;5032431;28;20126;-76
2022/04/03 08:18:22;;;;;;;4.67;4.10;;;;;;;;;;5031904;28;20013;-75
2022/04/03 08:20:48;;;;;;;6.40;4.00;;;;;;;;;;5024196;28;20037;-75
2022/04/03 08:23:14;;;;;;;5.17;3.63;;;5.70;99.90;;;;;;5032470;28;20042;-76
2022/04/03 08:25:39;;;;;;;5.37;3.30;;;6.10;99.90;;;;;;5031927;28;20029;-75
2022/04/03 08:28:07;;;;;;;5.23;3.43;;;;;;;;;;5028303;28;20030;-75
2022/04/03 08:30:34;;;;;;;4.90;3.50;;;6.30;99.90;;;;;;5005911;28;20030;-76
2022/04/03 08:33:01;;;;;;;4.97;3.27;;;6.30;99.90;;;;;;5023702;28;20064;-76
2022/04/03 08:35:28;;;;;;;4.77;3.63;;;6.30;99.80;;;;;;5032686;28;20091;-76
2022/04/03 08:37:55;;;;;;;3.87;2.57;;;6.30;99.90;;;;;;5033098;28;20071;-75
2022/04/03 08:40:23;;;;;;;3.73;2.23;;;6.20;99.90;;;;;;5032711;28;20025;-75
2022/04/03 08:42:54;;;;;;;5.73;3.33;;;6.00;99.90;;;;;;5006053;28;20045;-76
2022/04/03 08:45:20;;;;;;;5.60;2.90;;;5.90;99.40;;;;;;5011181;28;20030;-76
2022/04/03 08:47:55;;;;;;;3.60;2.37;;;5.90;99.90;;;;;;5030930;28;20867;-75
2022/04/03 08:50:49;;;;;;;3.97;2.60;;;6.20;99.50;;;;;;5031614;28;20835;-76
2022/04/03 08:53:15;;;;;;;3.97;2.75;;;;;;;;;;5025955;28;20042;-75
2022/04/03 08:55:41;;;;;;;4.33;3.23;;;5.80;99.90;;;;;;5030832;28;20167;-77
2022/04/03 08:58:07;;;;;;;4.40;3.33;;;;;;;;;;5031582;28;20013;-77
2022/04/03 09:00:33;;;;;;;3.33;2.33;;;6.00;99.90;;;;;;5030970;28;20056;-76
2022/04/03 09:02:59;;;;;;;3.20;2.23;;;6.20;99.40;;;;;;5030763;28;20040;-76
2022/04/03 09:05:38;;;;;;;3.40;2.60;;;6.30;99.90;;;;;;5031096;28;20024;-77
2022/04/03 09:08:04;;;;;;;6.00;2.73;;;6.00;99.90;;;;;;5029978;28;20026;-76
2022/04/03 09:10:30;;;;;;;3.90;2.27;;;;;;;;;;5014691;28;20040;-75
2022/04/03 09:12:56;;;;;;;3.20;2.40;;;6.40;99.60;;;;;;5019341;28;20042;-76
2022/04/03 09:15:23;;;;;;;7.43;2.83;;;6.40;99.90;;;;;;5031659;28;20025;-75
2022/04/03 09:18:00;;;;;;;3.33;2.07;;;6.50;99.90;;;;;;5030362;28;20079;-76
2022/04/03 09:20:27;;;;;;;3.83;2.30;;;6.60;99.90;;;;;;5012100;28;20091;-76
2022/04/03 09:22:55;;;;;;;2.77;1.93;;;6.90;96.90;;;;;;5030686;28;20033;-76
2022/04/03 09:25:29;;;;;;;4.70;2.20;;;7.20;99.90;;;;;;5031036;28;20021;-75
2022/04/03 09:27:56;;;;;;;;;;;7.40;97.40;;;;;;5031022;28;20029;-75
2022/04/03 09:30:23;;;;;;;4.27;2.40;;;8.20;99.90;;;;;;5030522;28;19959;-75
2022/04/03 09:32:55;;;;;;;3.53;2.53;;;8.00;94.60;;;;;;5030505;28;20026;-75
2022/04/03 09:35:30;;;;;;;5.67;2.77;;;8.00;99.90;;;;;;5029959;28;20041;-76
2022/04/03 09:38:12;;;;;;;6.07;2.93;;;8.00;94.00;;;;;;5030625;28;20022;-75
2022/04/03 09:40:43;;;;;;;3.40;2.60;;;9.60;95.60;;;;;;5031260;28;20087;-74
2022/04/03 09:43:30;;;;;;;3.70;2.33;;;8.00;99.90;;;;;;5030442;28;20108;-74
2022/04/03 09:46:02;;;;;;;5.40;2.43;;;7.70;99.90;;;;;;5030100;28;20075;-74
2022/04/03 09:48:36;;;;;;;2.93;1.30;;;7.50;99.90;;;;;;5030687;28;20021;-75
2022/04/03 09:51:04;;;;;;;1.65;0.80;;;7.20;99.90;;;;;;5028480;28;20032;-73
2022/04/03 09:53:42;;;;;;;1.00;0.50;;;7.00;93.90;;;;;;5030433;28;20017;-73
2022/04/03 09:56:09;;;;;;;1.63;0.63;;;6.90;99.90;;;;;;5013181;28;20425;-73
2022/04/03 09:59:03;;;;;;;3.23;0.60;;;6.80;99.90;;;;;;5030537;28;20029;-73
2022/04/03 10:01:33;;;;;;;2.27;0.60;;;;;;;;;;5025273;28;20058;-73
2022/04/03 10:04:01;;;;;;;4.70;0.73;;;7.30;93.20;;;;;;5029422;28;20398;-73
2022/04/03 10:06:27;;;;;;;1.53;0.87;;;7.70;93.10;;;;;;5029919;28;20029;-73
2022/04/03 10:08:53;;;;;;;1.87;0.57;;;7.90;99.30;;;;;;5030679;28;20052;-73
2022/04/03 10:11:20;;;;;;;3.30;0.50;;;8.40;98.70;;;;;;5030640;28;20021;-73
2022/04/03 10:13:46;;;;;;;0.60;0.40;;;;;;;;;;5029567;28;20332;-73
2022/04/03 10:16:13;;;;;;;2.90;0.60;;;8.40;98.20;;;;;;5031501;28;20025;-73
2022/04/03 10:18:43;;;;;;;2.63;0.70;;;8.10;97.80;;;;;;5031745;28;20052;-73
2022/04/03 10:21:32;;;;;;;1.73;0.60;;;8.00;90.70;;;;;;5030946;28;20049;-74
2022/04/03 10:24:12;;;;;;;5.13;1.70;;;7.70;97.60;;;;;;5008388;28;20047;-74
2022/04/03 10:26:40;;;;;;;1.10;0.80;;;7.50;97.70;;;;;;5025234;28;20029;-74
2022/04/03 10:29:09;;;;;;;4.27;1.07;;;7.50;91.00;;;;;;5029210;28;20017;-74
2022/04/03 10:31:37;;;;;;;2.50;0.93;;;7.50;97.90;;;;;;5010768;28;20063;-74
2022/04/03 10:34:02;;;;;;;0.80;0.60;;;7.40;97.70;;;;;;5029478;28;20451;-74
2022/04/03 10:36:30;;;;;;;2.13;0.63;;;7.40;97.40;;;;;;5029110;28;20104;-74
2022/04/03 10:39:08;;;;;;;1.53;0.60;;;7.60;89.20;;;;;;5011517;28;20021;-73
2022/04/03 10:41:40;;;;;;;0.90;0.50;;;7.60;89.90;;;;;;5026152;28;20045;-74
2022/04/03 10:44:22;;;;;;;1.93;0.60;;;7.60;88.10;;;;;;5028956;28;20095;-74
2022/04/03 10:47:03;;;;;;;1.17;0.60;;;7.50;90.60;;;;;;5011299;28;20494;-74
2022/04/03 10:49:46;;;;;;;1.03;0.60;;;7.60;88.10;;;;;;5029206;28;20112;-74
2022/04/03 10:52:36;;;;;;;3.97;0.80;;;7.50;97.00;;;;;;5029001;28;20109;-74
2022/04/03 10:55:10;;;;;;;2.87;1.00;;;7.60;92.20;;;;;;5012040;28;20386;-73
2022/04/03 10:57:50;;;;;;;3.60;1.13;;;7.60;89.80;;;;;;5029283;28;20038;-73
2022/04/03 11:00:16;;;;;;;1.53;1.03;;;7.60;97.20;;;;;;5030123;28;20038;-74
2022/04/03 11:02:50;;;;;;;1.20;0.63;;;7.70;97.60;;;;;;5029136;28;20068;-73
2022/04/03 11:05:22;;;;;;;;;;;7.60;91.80;;;;;;5029776;28;20018;-74
2022/04/03 11:07:59;;;;;;;1.73;0.83;;;7.90;97.70;;;;;;5027299;28;19912;-73
2022/04/03 11:10:56;;;;;;;2.17;0.73;;;6.70;89.20;;;;;;5025767;28;20025;-73
2022/04/03 11:13:23;;;;;;;3.30;0.87;;;;;;;;;;5020758;28;20435;-73
2022/04/03 11:15:56;;;;;;;3.73;0.90;;;8.50;97.30;;;;;;5010084;28;20018;-73
2022/04/03 11:18:29;;;;;;;4.03;0.70;;;8.30;97.20;;;;;;5005632;28;20116;-74
2022/04/03 11:21:10;;;;;;;6.17;0.97;;;8.00;97.00;;;;;;5029854;28;20030;-74
2022/04/03 11:23:40;;;;;;;4.17;0.90;;;8.20;90.10;;;;;;5029025;28;20040;-73
2022/04/03 11:26:06;;;;;;;3.57;0.90;;;;;;;;;;5012262;28;20032;-74
2022/04/03 11:28:36;;;;;;;4.33;0.67;;;8.10;93.80;;;;;;5029202;28;20026;-73
2022/04/03 11:31:03;;;;;;;2.33;0.80;;;8.20;95.90;;;;;;5019073;28;20536;-73
2022/04/03 11:33:30;;;;;;;1.67;0.80;;;8.00;97.10;;;;;;5011738;28;20137;-73
2022/04/03 11:36:12;;;;;;;4.70;1.20;;;8.00;97.30;;;;;;5029681;28;20045;-73
2022/04/03 11:38:43;;;;;;;3.77;1.27;;;7.80;97.30;;;;;;5012212;28;20079;-73
2022/04/03 11:41:18;;;;;;;2.57;0.90;;;8.20;89.00;;;;;;5030542;28;20025;-74
2022/04/03 11:44:04;;;;;;;2.10;1.20;;;8.20;90.30;;;;;;5029456;28;20095;-73
2022/04/03 11:46:42;;;;;;;3.73;0.80;;;8.50;88.30;;;;;;5028263;28;20040;-73
2022/04/03 11:49:16;;;;;;;4.93;1.03;;;8.50;87.60;;;;;;5029991;28;20038;-73
2022/04/03 11:51:43;;;;;;;2.10;0.80;;;8.80;96.30;;;;;;5029281;28;20033;-73
2022/04/03 11:54:09;;;;;;;3.03;1.27;;;8.40;96.40;;;;;;5027178;28;20022;-73
2022/04/03 11:56:36;;;;;;;6.80;1.07;;;8.90;89.80;;;;;;5024855;28;20037;-73
2022/04/03 11:59:04;;;;;;;2.27;1.30;;;9.10;96.80;;;;;;5028916;28;20037;-73
2022/04/03 12:01:35;;;;;;;2.50;1.13;;;10.50;90.20;;;;;;5029803;28;20036;-73
2022/04/03 12:04:12;;;;;;;2.53;0.90;;;9.00;93.00;;;;;;5015427;28;20052;-75
2022/04/03 12:06:43;;;;;;;1.90;0.80;;;8.90;96.70;;;;;;5030389;28;20026;-73
2022/04/03 12:09:13;;;;;;;2.20;1.10;;;8.60;96.70;;;;;;5032256;28;20041;-73
2022/04/03 12:11:40;;;;;;;3.30;1.20;;;8.40;96.80;;;;;;5029399;28;20030;-74
2022/04/03 12:14:07;;;;;;;1.40;1.00;;;8.40;97.10;;;;;;5032377;28;20433;-74
2022/04/03 12:16:35;;;;;;;1.77;0.80;;;8.20;95.50;;;;;;5031615;28;20032;-74
2022/04/03 12:19:06;;;;;;;3.80;1.67;;;8.10;90.90;;;;;;5032163;28;20033;-75
2022/04/03 12:21:40;;;;;;;4.30;1.03;;;8.00;90.50;;;;;;5031216;28;20025;-74
2022/04/03 12:24:10;;;;;;;2.80;1.00;;;7.60;97.70;;;;;;5031354;28;20040;-74
2022/04/03 12:26:36;;;;;;;2.37;1.00;;;8.10;91.50;;;;;;5031336;28;20025;-74
2022/04/03 12:29:04;;;;;;;6.10;1.30;;;7.80;95.60;;;;;;5028191;28;20062;-74
2022/04/03 12:31:32;;;;;;;3.00;0.90;;;7.90;91.70;;;;;;5031774;28;20029;-72
2022/04/03 12:34:11;;;;;;;1.70;1.00;;;7.90;98.40;;;;;;5030266;28;20158;-73
2022/04/03 12:36:38;;;;;;;1.17;0.70;;;7.90;97.50;;;;;;5031246;28;20042;-73
2022/04/03 12:39:03;;;;;;;1.53;1.13;;;7.90;98.50;;;;;;5030793;28;20068;-74
2022/04/03 12:41:29;;;;;;;3.97;1.23;;;8.10;98.60;;;;;;5031513;28;20045;-74
2022/04/03 12:43:59;;;;;;;1.43;0.83;;;8.00;91.10;;;;;;5028878;28;20040;-74
2022/04/03 12:46:35;;;;;;;1.87;1.07;;;7.90;92.90;;;;;;5032307;28;20029;-73
2022/04/03 12:49:01;;;;;;;2.20;1.03;;;;;;;;;;5031232;28;20022;-74
2022/04/03 12:51:27;;;;;;;2.40;1.00;;;7.80;96.50;;;;;;5031230;28;20482;-74
2022/04/03 12:53:53;;;;;;;2.17;1.33;;;7.80;98.20;;;;;;5031092;28;20778;-75
2022/04/03 12:56:18;;;;;;;2.33;0.90;;;7.80;98.30;;;;;;5032289;28;20033;-75
2022/04/03 12:58:49;;;;;;;1.00;0.57;;;7.80;98.10;;;;;;5031388;28;20028;-75
2022/04/03 13:01:16;;;;;;;1.80;1.03;;;8.00;98.20;;;;;;5018273;28;20029;-75
2022/04/03 13:03:51;;;;;;;1.17;0.80;;;8.20;98.30;;;;;;5011152;28;20044;-75
2022/04/03 13:06:33;;;;;;;5.53;0.73;;;8.10;98.00;;;;;;4999377;28;20104;-75
2022/04/03 13:08:59;;;;;;;1.43;0.60;;;8.50;97.30;;;;;;5010991;28;20068;-75
2022/04/03 13:11:46;;;;;;;0.93;0.40;;;8.70;97.00;;;;;;5015067;28;20034;-75
2022/04/03 13:14:12;;;;;;;2.30;0.50;;;;;;;;;;5011922;28;20025;-75
2022/04/03 13:16:39;;;;;;;2.60;0.50;;;9.00;96.50;;;;;;5019049;28;20061;-75
2022/04/03 13:19:04;;;;;;;3.03;0.77;;;9.00;96.10;;;;;;5031485;28;20378;-75
2022/04/03 13:21:35;;;;;;;2.80;0.63;;;8.90;96.20;;;;;;5031416;28;20029;-75
2022/04/03 13:24:01;;;;;;;0.87;0.50;;;;;;;;;;5031390;28;20117;-75
2022/04/03 13:26:27;;;;;;;1.77;1.10;;;;;;;;;;5031429;28;20029;-75